createdAt,value
2019-04-29T00:02:31.756Z,12.62
2019-04-29T00:05:05.495Z,12.57
2019-04-29T00:07:37.892Z,12.52
2019-04-29T00:10:11.686Z,12.49
2019-04-29T00:12:43.562Z,12.44
2019-04-29T00:15:18.269Z,12.37
2019-04-29T00:17:54.562Z,12.28
2019-04-29T00:20:33.681Z,12.22
2019-04-29T00:23:06.384Z,12.16
2019-04-29T00:25:39.582Z,12.14
2019-04-29T00:28:13.109Z,12.14
2019-04-29T00:30:48.935Z,12.14
2019-04-29T00:33:20.781Z,12.12
2019-04-29T00:35:52.456Z,12.12
2019-04-29T00:38:41.478Z,12.08
2019-04-29T00:41:14.781Z,12.07
2019-04-29T00:43:48.042Z,12.02
2019-04-29T00:46:19.970Z,12.01
2019-04-29T00:48:51.720Z,12.00
2019-04-29T00:51:24.900Z,11.96
2019-04-29T00:53:58.320Z,11.98
2019-04-29T00:56:30.013Z,11.89
2019-04-29T00:59:01.790Z,11.84
2019-04-29T01:01:34.671Z,11.91
2019-04-29T01:04:06.472Z,11.89
2019-04-29T01:06:38.276Z,11.84
2019-04-29T01:09:12.642Z,11.83
2019-04-29T01:11:44.374Z,11.82
2019-04-29T01:14:16.600Z,11.90
2019-04-29T01:16:48.689Z,11.93
2019-04-29T01:19:20.369Z,11.91
2019-04-29T01:21:52.012Z,11.90
2019-04-29T01:24:23.767Z,11.88
2019-04-29T01:26:57.907Z,11.89
2019-04-29T01:29:31.188Z,11.88
2019-04-29T01:32:08.258Z,11.89
2019-04-29T01:34:44.475Z,11.86
2019-04-29T01:37:18.957Z,11.84
2019-04-29T01:39:53.466Z,11.74
2019-04-29T01:42:26.990Z,11.68
2019-04-29T01:45:00.330Z,11.58
2019-04-29T01:47:32.272Z,11.51
2019-04-29T01:50:05.137Z,11.44
2019-04-29T01:52:36.897Z,11.37
2019-04-29T01:55:08.742Z,11.29
2019-04-29T01:57:40.516Z,11.20
2019-04-29T02:00:13.192Z,11.19
2019-04-29T02:02:45.095Z,11.19
2019-04-29T02:05:16.730Z,11.11
2019-04-29T02:07:48.551Z,11.04
2019-04-29T02:10:21.787Z,11.00
2019-04-29T02:12:53.469Z,11.00
2019-04-29T02:15:25.276Z,11.04
2019-04-29T02:18:00.733Z,11.02
2019-04-29T02:20:32.316Z,10.93
2019-04-29T02:23:26.935Z,10.86
2019-04-29T02:26:11.408Z,10.81
2019-04-29T02:28:43.012Z,10.77
2019-04-29T02:31:32.949Z,10.72
2019-04-29T02:34:04.929Z,10.64
2019-04-29T02:36:38.987Z,10.73
2019-04-29T02:39:14.030Z,10.77
2019-04-29T02:41:53.178Z,10.77
2019-04-29T02:44:44.427Z,10.95
2019-04-29T02:47:29.319Z,10.96
2019-04-29T02:50:01.588Z,10.85
2019-04-29T02:52:33.597Z,10.62
2019-04-29T02:55:08.582Z,10.59
2019-04-29T02:57:42.075Z,10.47
2019-04-29T03:00:16.332Z,10.58
2019-04-29T03:03:02.136Z,10.71
2019-04-29T03:05:41.420Z,10.75
2019-04-29T03:08:13.118Z,10.74
2019-04-29T03:10:45.028Z,10.66
2019-04-29T03:13:18.986Z,10.75
2019-04-29T03:15:51.971Z,10.88
2019-04-29T03:18:26.466Z,10.71
2019-04-29T03:21:02.796Z,10.50
2019-04-29T03:23:34.840Z,10.46
2019-04-29T03:26:08.059Z,10.46
2019-04-29T03:28:41.141Z,10.62
2019-04-29T03:31:13.097Z,10.53
2019-04-29T03:33:44.934Z,10.55
2019-04-29T03:36:17.432Z,10.65
2019-04-29T03:38:50.863Z,10.87
2019-04-29T03:41:23.480Z,11.40
2019-04-29T03:43:56.430Z,12.27
2019-04-29T03:46:28.342Z,13.32
2019-04-29T03:49:00.385Z,14.24
2019-04-29T03:51:32.330Z,14.41
2019-04-29T03:54:04.564Z,14.84
2019-04-29T03:56:36.585Z,15.20
2019-04-29T03:59:09.599Z,15.82
2019-04-29T04:01:42.948Z,16.54
2019-04-29T04:04:23.737Z,17.11
2019-04-29T04:07:03.858Z,17.91
2019-04-29T04:09:35.727Z,18.57
2019-04-29T04:12:07.587Z,18.94
2019-04-29T04:14:39.820Z,19.74
2019-04-29T04:17:13.334Z,20.30
2019-04-29T04:19:45.451Z,20.94
2019-04-29T04:22:17.446Z,21.65
2019-04-29T04:24:52.019Z,21.80
2019-04-29T04:27:23.811Z,21.93
2019-04-29T04:29:56.030Z,22.25
2019-04-29T04:32:27.945Z,22.48
2019-04-29T04:35:01.062Z,22.59
2019-04-29T04:37:34.120Z,22.93
2019-04-29T04:40:09.606Z,23.15
2019-04-29T04:42:42.273Z,23.42
2019-04-29T04:45:14.729Z,23.88
2019-04-29T04:47:48.485Z,24.40
2019-04-29T04:50:26.648Z,24.81
2019-04-29T04:52:58.881Z,24.84
2019-04-29T04:55:33.163Z,24.91
2019-04-29T04:58:04.964Z,24.87
2019-04-29T05:00:37.892Z,24.21
2019-04-29T05:03:11.899Z,22.96
2019-04-29T05:05:44.696Z,22.02
2019-04-29T05:08:16.846Z,21.41
2019-04-29T05:10:48.669Z,21.07
2019-04-29T05:13:28.215Z,20.99
2019-04-29T05:15:57.885Z,20.87
2019-04-29T05:18:29.762Z,20.86
2019-04-29T05:21:01.994Z,21.22
2019-04-29T05:23:34.699Z,22.08
2019-04-29T05:26:06.532Z,22.31
2019-04-29T05:28:38.755Z,22.05
2019-04-29T05:31:12.140Z,22.41
2019-04-29T05:33:44.321Z,23.28
2019-04-29T05:36:19.474Z,22.92
2019-04-29T05:38:56.731Z,22.87
2019-04-29T05:41:30.181Z,22.48
2019-04-29T05:44:08.846Z,23.08
2019-04-29T05:46:42.277Z,22.02
2019-04-29T05:49:17.805Z,21.91
2019-04-29T05:51:51.276Z,21.37
2019-04-29T05:54:31.727Z,21.20
2019-04-29T05:57:04.280Z,21.18
2019-04-29T05:59:36.150Z,21.54
2019-04-29T06:02:16.991Z,21.74
2019-04-29T06:04:52.411Z,21.86
2019-04-29T06:07:26.786Z,22.18
2019-04-29T06:09:57.629Z,22.23
2019-04-29T06:12:32.913Z,22.49
2019-04-29T06:15:08.849Z,22.94
2019-04-29T06:17:44.899Z,23.04
2019-04-29T06:20:17.548Z,22.78
2019-04-29T06:22:48.469Z,22.00
2019-04-29T06:25:20.214Z,21.68
2019-04-29T06:27:53.564Z,21.52
2019-04-29T06:30:26.828Z,21.29
2019-04-29T06:33:01.358Z,21.26
2019-04-29T06:35:34.086Z,20.87
2019-04-29T06:38:09.000Z,20.74
2019-04-29T06:40:44.155Z,20.85
2019-04-29T06:43:18.531Z,20.65
2019-04-29T06:45:50.403Z,20.42
2019-04-29T06:48:22.727Z,20.21
2019-04-29T06:50:54.559Z,19.98
2019-04-29T06:53:26.489Z,19.96
2019-04-29T06:55:58.210Z,20.14
2019-04-29T06:58:32.485Z,20.28
2019-04-29T07:01:04.971Z,20.16
2019-04-29T07:03:41.065Z,20.21
2019-04-29T07:06:12.920Z,20.05
2019-04-29T07:08:47.043Z,19.82
2019-04-29T07:11:20.576Z,20.02
2019-04-29T07:13:57.566Z,20.04
2019-04-29T07:16:32.046Z,20.08
2019-04-29T07:19:06.125Z,20.07
2019-04-29T07:21:41.777Z,20.03
2019-04-29T07:24:15.397Z,19.71
2019-04-29T07:26:52.326Z,19.40
2019-04-29T07:29:30.897Z,19.06
2019-04-29T07:31:59.663Z,18.73
2019-04-29T07:34:39.100Z,18.58
2019-04-29T07:37:10.733Z,18.51
2019-04-29T07:39:42.490Z,18.37
2019-04-29T07:42:14.215Z,18.35
2019-04-29T07:44:48.885Z,18.36
2019-04-29T07:47:24.998Z,18.51
2019-04-29T07:49:55.091Z,18.66
2019-04-29T07:52:27.606Z,19.00
2019-04-29T07:55:00.432Z,19.38
2019-04-29T07:57:32.493Z,19.97
2019-04-29T08:00:12.370Z,20.18
2019-04-29T08:02:43.828Z,20.07
2019-04-29T08:05:17.503Z,20.01
2019-04-29T08:07:51.029Z,19.98
2019-04-29T08:10:28.598Z,20.11
2019-04-29T08:13:02.514Z,20.36
2019-04-29T08:15:36.818Z,20.19
2019-04-29T08:18:11.402Z,20.12
2019-04-29T08:20:43.085Z,20.16
2019-04-29T08:23:14.748Z,20.08
2019-04-29T08:25:51.029Z,19.88
2019-04-29T08:28:23.418Z,19.80
2019-04-29T08:30:56.279Z,19.81
2019-04-29T08:33:28.950Z,19.84
2019-04-29T08:36:02.661Z,19.81
2019-04-29T08:38:35.624Z,19.83
2019-04-29T08:41:07.999Z,19.78
2019-04-29T08:43:47.680Z,19.82
2019-04-29T08:46:22.565Z,19.81
2019-04-29T08:48:54.464Z,19.85
2019-04-29T08:51:28.102Z,19.79
2019-04-29T08:54:01.389Z,19.75
2019-04-29T08:56:35.361Z,19.56
2019-04-29T08:59:08.319Z,19.34
2019-04-29T09:01:40.234Z,19.20
2019-04-29T09:04:12.010Z,19.14
2019-04-29T09:06:43.895Z,19.13
2019-04-29T09:09:28.667Z,19.11
2019-04-29T09:11:52.488Z,19.07
2019-04-29T09:14:24.271Z,19.02
2019-04-29T09:16:56.129Z,18.99
2019-04-29T09:19:28.715Z,18.87
2019-04-29T09:22:03.994Z,18.79
2019-04-29T09:24:39.106Z,18.75
2019-04-29T09:27:17.605Z,18.71
2019-04-29T09:29:54.221Z,18.68
2019-04-29T09:32:24.562Z,18.59
2019-04-29T09:34:59.467Z,18.51
2019-04-29T09:37:30.560Z,18.48
2019-04-29T09:40:07.392Z,18.52
2019-04-29T09:42:50.243Z,18.68
2019-04-29T09:45:38.658Z,18.83
2019-04-29T09:48:12.905Z,19.31
2019-04-29T09:50:45.348Z,19.88
2019-04-29T09:53:19.821Z,20.43
2019-04-29T09:55:54.790Z,20.82
2019-04-29T09:58:26.603Z,21.06
2019-04-29T10:00:59.979Z,21.21
2019-04-29T10:03:33.467Z,21.25
2019-04-29T10:06:23.165Z,21.16
2019-04-29T10:08:54.969Z,20.99
2019-04-29T10:11:27.754Z,20.54
2019-04-29T10:13:59.539Z,20.29
2019-04-29T10:16:36.048Z,20.10
2019-04-29T10:19:29.150Z,19.97
2019-04-29T10:22:01.124Z,20.04
2019-04-29T10:24:35.021Z,20.08
2019-04-29T10:27:08.834Z,20.05
2019-04-29T10:29:46.119Z,20.18
2019-04-29T10:32:21.082Z,20.15
2019-04-29T10:34:55.241Z,20.33
2019-04-29T10:37:32.547Z,20.38
2019-04-29T10:40:11.791Z,20.17
2019-04-29T10:42:51.569Z,20.04
2019-04-29T10:45:24.816Z,20.02
2019-04-29T10:48:14.494Z,20.02
2019-04-29T10:50:51.993Z,20.01
2019-04-29T10:53:24.801Z,20.06
2019-04-29T10:55:56.652Z,19.99
2019-04-29T10:58:35.176Z,19.75
2019-04-29T11:01:20.770Z,19.61
2019-04-29T11:03:55.927Z,19.44
2019-04-29T11:06:31.448Z,19.23
2019-04-29T11:09:09.644Z,19.05
2019-04-29T11:11:45.501Z,18.94
2019-04-29T11:14:18.798Z,18.78
2019-04-29T11:16:54.035Z,18.74
2019-04-29T11:19:26.675Z,18.60
2019-04-29T11:22:03.306Z,18.51
2019-04-29T11:24:48.740Z,18.51
2019-04-29T11:27:23.194Z,18.51
2019-04-29T11:30:02.784Z,18.59
2019-04-29T11:32:35.641Z,18.64
2019-04-29T11:35:11.202Z,18.64
2019-04-29T11:37:43.267Z,18.66
2019-04-29T11:40:26.112Z,18.53
2019-04-29T11:42:55.148Z,18.58
2019-04-29T11:45:28.915Z,18.62
2019-04-29T11:48:00.671Z,18.54
2019-04-29T11:50:34.192Z,18.53
2019-04-29T11:53:06.803Z,18.55
2019-04-29T11:55:42.710Z,18.64
2019-04-29T11:58:21.442Z,18.71
2019-04-29T12:00:57.949Z,18.76
2019-04-29T12:03:43.048Z,18.61
2019-04-29T12:06:20.528Z,18.63
2019-04-29T12:08:53.214Z,18.58
2019-04-29T12:11:28.715Z,18.52
2019-04-29T12:14:20.136Z,18.62
2019-04-29T12:17:12.046Z,18.66
2019-04-29T12:19:51.099Z,18.90
2019-04-29T12:22:30.732Z,18.95
2019-04-29T12:25:05.524Z,18.69
2019-04-29T12:27:39.224Z,18.71
2019-04-29T12:30:13.204Z,18.60
2019-04-29T12:33:01.353Z,18.69
2019-04-29T12:35:52.330Z,18.79
2019-04-29T12:38:39.750Z,18.84
2019-04-29T12:41:29.665Z,18.87
2019-04-29T12:44:05.322Z,19.03
2019-04-29T12:46:46.791Z,18.91
2019-04-29T12:49:22.481Z,18.90
2019-04-29T12:51:56.192Z,19.11
2019-04-29T12:54:28.020Z,19.04
2019-04-29T12:57:00.428Z,18.93
2019-04-29T12:59:35.570Z,18.70
2019-04-29T13:02:14.297Z,18.48
2019-04-29T13:04:51.534Z,18.22
2019-04-29T13:07:35.383Z,18.02
2019-04-29T13:10:17.147Z,18.01
2019-04-29T13:12:52.366Z,17.90
2019-04-29T13:15:43.629Z,17.57
2019-04-29T13:18:23.082Z,17.49
2019-04-29T13:20:52.197Z,17.24
2019-04-29T13:23:36.004Z,16.84
2019-04-29T13:25:59.402Z,16.72
2019-04-29T13:28:58.917Z,16.66
2019-04-29T13:31:20.217Z,16.42
2019-04-29T13:33:56.484Z,16.24
2019-04-29T13:36:32.673Z,16.10
2019-04-29T13:39:09.045Z,16.03
2019-04-29T13:41:56.207Z,15.90
2019-04-29T13:44:19.499Z,15.87
2019-04-29T13:47:08.366Z,15.80
2019-04-29T13:49:49.370Z,15.73
2019-04-29T13:52:21.225Z,15.73
2019-04-29T13:54:55.551Z,15.63
2019-04-29T13:57:30.322Z,15.60
2019-04-29T14:00:12.903Z,15.51
2019-04-29T14:02:58.908Z,15.54
2019-04-29T14:05:27.805Z,15.49
2019-04-29T14:08:02.176Z,15.36
2019-04-29T14:10:35.783Z,15.25
2019-04-29T14:13:13.467Z,15.32
2019-04-29T14:15:44.040Z,15.24
2019-04-29T14:18:17.103Z,15.11
2019-04-29T14:20:51.824Z,15.01
2019-04-29T14:23:23.975Z,14.92
2019-04-29T14:25:55.750Z,14.80
2019-04-29T14:28:36.854Z,14.71
2019-04-29T14:31:10.048Z,14.70
2019-04-29T14:34:00.382Z,14.62
2019-04-29T14:36:33.172Z,14.60
2019-04-29T14:39:13.099Z,14.45
2019-04-29T14:41:50.883Z,14.32
2019-04-29T14:44:40.032Z,14.31
2019-04-29T14:47:23.001Z,14.27
2019-04-29T14:49:57.050Z,14.20
2019-04-29T14:52:31.175Z,14.08
2019-04-29T14:55:03.877Z,13.95
2019-04-29T14:57:38.920Z,13.90
2019-04-29T15:00:12.375Z,13.88
2019-04-29T15:02:45.612Z,13.86
2019-04-29T15:05:19.384Z,13.93
2019-04-29T15:07:51.682Z,14.04
2019-04-29T15:10:26.676Z,14.01
2019-04-29T15:13:11.506Z,13.88
2019-04-29T15:16:03.710Z,13.82
2019-04-29T15:18:49.515Z,13.83
2019-04-29T15:21:32.768Z,13.80
2019-04-29T15:24:05.906Z,13.73
2019-04-29T15:26:40.793Z,13.61
2019-04-29T15:29:17.152Z,13.54
2019-04-29T15:31:49.107Z,13.44
2019-04-29T15:34:20.999Z,13.29
2019-04-29T15:36:54.929Z,13.11
2019-04-29T15:39:27.755Z,12.99
2019-04-29T15:42:01.770Z,12.82
2019-04-29T15:44:37.064Z,12.71
2019-04-29T15:47:10.007Z,12.67
2019-04-29T15:49:44.558Z,12.61
2019-04-29T15:52:21.146Z,12.56
2019-04-29T15:54:53.835Z,12.51
2019-04-29T15:57:28.639Z,12.48
2019-04-29T16:00:07.198Z,12.36
2019-04-29T16:02:40.491Z,12.32
2019-04-29T16:05:30.566Z,12.21
2019-04-29T16:08:09.583Z,12.16
2019-04-29T16:11:01.707Z,12.08
2019-04-29T16:13:35.862Z,12.01
2019-04-29T16:16:08.055Z,12.01
2019-04-29T16:18:42.607Z,11.98
2019-04-29T16:21:17.381Z,11.85
2019-04-29T16:23:49.444Z,11.83
2019-04-29T16:26:24.973Z,11.81
2019-04-29T16:29:01.048Z,11.74
2019-04-29T16:31:35.427Z,11.71
2019-04-29T16:34:07.243Z,11.73
2019-04-29T16:36:43.790Z,11.73
2019-04-29T16:39:15.934Z,11.71
2019-04-29T16:42:01.377Z,11.67
2019-04-29T16:44:36.059Z,11.49
2019-04-29T16:47:13.058Z,11.53
2019-04-29T16:49:47.878Z,11.43
2019-04-29T16:52:22.959Z,11.40
2019-04-29T16:54:59.052Z,11.35
2019-04-29T16:57:35.518Z,11.32
2019-04-29T17:00:18.195Z,11.32
2019-04-29T17:02:52.143Z,11.16
2019-04-29T17:05:26.565Z,11.16
2019-04-29T17:08:09.401Z,11.12
2019-04-29T17:10:44.453Z,11.10
2019-04-29T17:13:24.062Z,11.10
2019-04-29T17:15:57.273Z,11.09
2019-04-29T17:18:34.699Z,11.09
2019-04-29T17:21:12.292Z,11.09
2019-04-29T17:23:45.579Z,11.09
2019-04-29T17:26:18.094Z,10.97
2019-04-29T17:28:58.832Z,10.84
2019-04-29T17:31:55.941Z,10.77
2019-04-29T17:34:55.829Z,10.73
2019-04-29T17:37:04.839Z,10.73
2019-04-29T17:39:38.838Z,10.74
2019-04-29T17:42:12.458Z,10.69
2019-04-29T17:44:46.519Z,10.69
2019-04-29T17:47:42.613Z,10.68
2019-04-29T17:50:31.575Z,10.58
2019-04-29T17:53:06.606Z,10.58
2019-04-29T17:55:45.356Z,10.54
2019-04-29T17:58:19.936Z,10.47
2019-04-29T18:01:00.312Z,10.40
2019-04-29T18:03:42.812Z,10.41
2019-04-29T18:06:24.323Z,10.41
2019-04-29T18:08:54.909Z,10.50
2019-04-29T18:11:30.039Z,10.52
2019-04-29T18:14:02.042Z,10.56
2019-04-29T18:16:39.562Z,10.52
2019-04-29T18:19:17.485Z,10.55
2019-04-29T18:22:08.639Z,10.55
2019-04-29T18:24:59.587Z,10.47
2019-04-29T18:27:38.226Z,10.29
2019-04-29T18:30:15.725Z,10.31
2019-04-29T18:32:49.535Z,10.24
2019-04-29T18:35:27.501Z,10.30
2019-04-29T18:38:01.251Z,10.31
2019-04-29T18:40:42.047Z,10.22
2019-04-29T18:43:11.714Z,10.16
2019-04-29T18:45:55.828Z,10.11
2019-04-29T18:48:21.552Z,10.05
2019-04-29T18:51:01.945Z,10.01
2019-04-29T18:53:38.894Z,10.09
2019-04-29T18:56:11.651Z,9.98
2019-04-29T18:58:50.106Z,9.97
2019-04-29T19:01:23.975Z,9.97
2019-04-29T19:04:04.782Z,9.92
2019-04-29T19:06:37.322Z,9.92
2019-04-29T19:09:17.823Z,9.99
2019-04-29T19:11:46.287Z,9.91
2019-04-29T19:14:20.648Z,9.98
2019-04-29T19:17:00.132Z,9.94
2019-04-29T19:19:35.804Z,9.94
2019-04-29T19:22:10.066Z,9.91
2019-04-29T19:24:48.037Z,9.81
2019-04-29T19:27:20.460Z,9.79
2019-04-29T19:29:55.026Z,9.77
2019-04-29T19:32:28.342Z,9.80
2019-04-29T19:35:01.625Z,9.81
2019-04-29T19:37:37.551Z,9.76
2019-04-29T19:40:08.861Z,9.76
2019-04-29T19:42:47.132Z,9.76
2019-04-29T19:45:21.957Z,9.78
2019-04-29T19:47:55.820Z,9.82
2019-04-29T19:50:29.372Z,9.76
2019-04-29T19:53:04.961Z,9.73
2019-04-29T19:55:43.216Z,9.74
2019-04-29T19:58:16.994Z,9.66
2019-04-29T20:00:52.749Z,9.66
2019-04-29T20:03:35.893Z,9.63
2019-04-29T20:06:08.551Z,9.63
2019-04-29T20:08:52.727Z,9.64
2019-04-29T20:11:17.374Z,9.64
2019-04-29T20:14:01.977Z,9.69
2019-04-29T20:16:43.307Z,9.76
2019-04-29T20:19:20.361Z,9.73
2019-04-29T20:21:51.318Z,9.74
2019-04-29T20:24:26.305Z,9.73
2019-04-29T20:27:00.164Z,9.68
2019-04-29T20:29:38.461Z,9.64
2019-04-29T20:32:09.757Z,9.66
2019-04-29T20:34:46.084Z,9.68
2019-04-29T20:37:19.874Z,9.70
2019-04-29T20:39:57.221Z,9.68
2019-04-29T20:42:29.889Z,9.63
2019-04-29T20:45:01.878Z,9.61
2019-04-29T20:47:40.174Z,9.47
2019-04-29T20:50:13.858Z,9.45
2019-04-29T20:52:46.125Z,9.41
2019-04-29T20:55:19.891Z,9.39
2019-04-29T20:57:54.092Z,9.40
2019-04-29T21:00:30.280Z,9.45
2019-04-29T21:03:08.672Z,9.42
2019-04-29T21:05:47.342Z,9.48
2019-04-29T21:08:16.454Z,9.50
2019-04-29T21:10:48.379Z,9.53
2019-04-29T21:13:28.374Z,9.53
2019-04-29T21:16:05.156Z,9.52
2019-04-29T21:18:39.499Z,9.53
2019-04-29T21:21:15.210Z,9.60
2019-04-29T21:23:48.327Z,9.56
2019-04-29T21:26:21.670Z,9.60
2019-04-29T21:28:55.414Z,9.70
2019-04-29T21:31:27.437Z,9.71
2019-04-29T21:33:59.247Z,9.75
2019-04-29T21:36:48.573Z,9.73
2019-04-29T21:39:25.243Z,9.77
2019-04-29T21:42:05.726Z,9.82
2019-04-29T21:44:40.086Z,9.87
2019-04-29T21:47:12.351Z,9.89
2019-04-29T21:49:49.605Z,9.92
2019-04-29T21:52:24.129Z,9.92
2019-04-29T21:54:54.601Z,9.91
2019-04-29T21:57:28.369Z,9.95
2019-04-29T22:00:00.643Z,9.97
2019-04-29T22:02:35.810Z,9.96
2019-04-29T22:05:14.883Z,9.97
2019-04-29T22:07:47.456Z,9.95
2019-04-29T22:10:25.226Z,9.93
2019-04-29T22:12:58.390Z,9.96
2019-04-29T22:15:32.447Z,9.98
2019-04-29T22:18:07.301Z,9.98
2019-04-29T22:20:42.154Z,9.94
2019-04-29T22:23:15.209Z,9.98
2019-04-29T22:25:47.257Z,9.96
2019-04-29T22:28:20.713Z,9.98
2019-04-29T22:30:54.923Z,9.93
2019-04-29T22:33:29.741Z,9.97
2019-04-29T22:36:01.647Z,9.96
2019-04-29T22:38:33.708Z,10.02
2019-04-29T22:41:07.079Z,10.01
2019-04-29T22:43:49.156Z,9.94
2019-04-29T22:46:22.645Z,9.98
2019-04-29T22:48:55.811Z,9.99
2019-04-29T22:51:29.595Z,10.00
2019-04-29T22:54:01.327Z,9.96
2019-04-29T22:56:33.566Z,10.00
2019-04-29T22:59:06.278Z,10.02
2019-04-29T23:01:50.485Z,10.02
2019-04-29T23:04:21.676Z,9.99
2019-04-29T23:06:57.168Z,9.98
2019-04-29T23:09:29.171Z,10.01
2019-04-29T23:12:01.004Z,9.97
2019-04-29T23:14:33.295Z,10.00
2019-04-29T23:17:12.087Z,9.96
2019-04-29T23:19:39.825Z,9.96
2019-04-29T23:22:30.088Z,9.98
2019-04-29T23:25:03.520Z,9.98
2019-04-29T23:27:36.117Z,9.93
2019-04-29T23:30:08.778Z,9.92
2019-04-29T23:32:44.263Z,9.95
2019-04-29T23:35:14.864Z,9.99
2019-04-29T23:37:47.087Z,9.96
2019-04-29T23:40:20.074Z,9.98
2019-04-29T23:42:51.771Z,10.01
2019-04-29T23:45:25.240Z,10.06
2019-04-29T23:47:57.292Z,10.00
2019-04-29T23:50:29.147Z,10.02
2019-04-29T23:53:02.558Z,10.11
2019-04-29T23:55:35.985Z,10.05
2019-04-29T23:58:18.514Z,10.07
